Portada
METAR-TAF:

METAR-TAF

Aeroports :

Atlanta, Geòrgia, Estats Units d'Amèrica

latitud: 33-54-43N, longitud: 084-56-26W, altitud: 393 m

Observació

L'informe es va fer fa 17 minuts, a les 07:15 UTC
Vent 4 kt del Nord
Temperatura -4°C
Humitat 63%
Pressió 1027 hPa
Visibilitat: 16.1 km
Cel clar

METAR: KPUJ 220715Z AUTO 36004KT 10SM CLR M04/M10 A3034 RMK AO2

Hora: 02:32 (07:32 UTC)


TAF: manca

Observacions i pronòstics meteorològics de més de 4000 aeroports (METAR i TAF).

Les estacions disponibles són els punts grocs i vermells al mapa.

Posi el ratolí al punt desitjat per veure el nom de l'estació.

Feu clic per veure les observacions i els pronòstics meteorològics.

Per canviar el mapa: feu clic els botons verds amb una creu de color negre per apropar; al botó verd amb un guió per allunyar la imatge; o en les fletxes verdes per a mapes adjacents.


METAR-TAF: